createdAt,value
2018-12-10T00:00:12.265Z,8.90
2018-12-10T00:03:50.426Z,8.80
2018-12-10T00:06:26.492Z,8.90
2018-12-10T00:09:00.526Z,8.90
2018-12-10T00:11:34.681Z,8.80
2018-12-10T00:14:08.735Z,8.70
2018-12-10T00:16:43.873Z,8.70
2018-12-10T00:19:17.889Z,8.80
2018-12-10T00:21:51.992Z,8.60
2018-12-10T00:24:26.081Z,8.60
2018-12-10T00:27:00.086Z,8.70
2018-12-10T00:29:34.119Z,8.60
2018-12-10T00:32:08.137Z,8.60
2018-12-10T00:34:45.444Z,8.60
2018-12-10T00:37:19.453Z,8.60
2018-12-10T00:39:53.486Z,8.60
2018-12-10T00:42:27.501Z,8.60
2018-12-10T00:45:01.561Z,8.60
2018-12-10T00:47:36.653Z,8.70
2018-12-10T00:50:10.886Z,8.60
2018-12-10T00:52:44.904Z,8.70
2018-12-10T00:55:18.917Z,8.60
2018-12-10T00:57:52.919Z,8.60
2018-12-10T01:00:26.945Z,8.60
2018-12-10T01:03:00.966Z,8.60
2018-12-10T01:05:34.990Z,8.70
2018-12-10T01:08:08.993Z,8.70
2018-12-10T01:10:43.018Z,8.70
2018-12-10T01:13:17.123Z,8.70
2018-12-10T01:15:51.158Z,8.80
2018-12-10T01:18:25.188Z,8.80
2018-12-10T01:20:59.218Z,8.90
2018-12-10T01:23:33.250Z,8.80
2018-12-10T01:26:10.569Z,8.90
2018-12-10T01:28:44.597Z,8.90
2018-12-10T01:31:18.631Z,8.90
2018-12-10T01:33:52.678Z,8.90
2018-12-10T01:36:29.904Z,8.80
2018-12-10T01:39:04.978Z,8.80
2018-12-10T01:41:40.166Z,8.80
2018-12-10T01:44:14.206Z,8.80
2018-12-10T01:46:51.854Z,8.80
2018-12-10T01:49:25.885Z,8.80
2018-12-10T01:51:59.898Z,8.80
2018-12-10T01:54:33.941Z,8.90
2018-12-10T01:57:07.949Z,8.90
2018-12-10T01:59:41.983Z,8.80
2018-12-10T02:02:16.007Z,8.80
2018-12-10T02:04:50.044Z,8.80
2018-12-10T02:07:24.150Z,8.60
2018-12-10T02:09:58.223Z,8.60
2018-12-10T02:12:32.242Z,8.70
2018-12-10T02:15:06.324Z,8.80
2018-12-10T02:17:40.338Z,8.80
2018-12-10T02:20:14.370Z,8.80
2018-12-10T02:22:48.376Z,8.80
2018-12-10T02:25:22.405Z,8.70
2018-12-10T02:28:00.338Z,8.80
2018-12-10T02:30:34.364Z,8.70
2018-12-10T02:33:08.397Z,8.70
2018-12-10T02:35:42.436Z,8.70
2018-12-10T02:38:16.478Z,8.60
2018-12-10T02:40:50.511Z,8.60
2018-12-10T02:43:24.531Z,8.60
2018-12-10T02:45:58.568Z,8.70
2018-12-10T02:48:32.642Z,8.70
2018-12-10T02:51:06.681Z,8.60
2018-12-10T02:53:40.762Z,8.70
2018-12-10T02:56:14.786Z,8.70
2018-12-10T02:58:48.803Z,8.60
2018-12-10T03:01:23.946Z,8.60
2018-12-10T03:03:57.954Z,8.50
2018-12-10T03:06:31.994Z,8.60
2018-12-10T03:09:07.474Z,8.70
2018-12-10T03:11:42.600Z,8.60
2018-12-10T03:14:16.625Z,8.60
2018-12-10T03:16:56.347Z,8.60
2018-12-10T03:19:30.391Z,8.60
2018-12-10T03:22:04.408Z,8.50
2018-12-10T03:24:38.449Z,8.60
2018-12-10T03:27:12.509Z,8.60
2018-12-10T03:29:46.538Z,8.70
2018-12-10T03:32:20.598Z,8.70
2018-12-10T03:34:55.756Z,8.60
2018-12-10T03:37:29.786Z,8.60
2018-12-10T03:40:04.223Z,8.60
2018-12-10T03:42:38.268Z,8.60
2018-12-10T03:45:12.322Z,8.60
2018-12-10T03:47:46.384Z,8.70
2018-12-10T03:50:20.452Z,8.70
2018-12-10T03:52:54.495Z,8.60
2018-12-10T03:55:28.541Z,8.70
2018-12-10T03:58:02.605Z,8.70
2018-12-10T04:00:37.751Z,8.70
2018-12-10T04:03:11.787Z,8.70
2018-12-10T04:05:45.861Z,8.70
2018-12-10T04:08:19.902Z,8.70
2018-12-10T04:10:53.952Z,8.70
2018-12-10T04:13:28.095Z,8.70
2018-12-10T04:16:02.141Z,8.70
2018-12-10T04:18:36.175Z,8.60
2018-12-10T04:21:10.230Z,8.50
2018-12-10T04:23:44.275Z,8.60
2018-12-10T04:26:18.329Z,8.60
2018-12-10T04:28:52.381Z,8.60
2018-12-10T04:31:26.457Z,8.50
2018-12-10T04:34:00.511Z,8.50
2018-12-10T04:36:36.589Z,8.60
2018-12-10T04:39:10.646Z,8.60
2018-12-10T04:41:44.690Z,8.70
2018-12-10T04:44:18.754Z,8.70
2018-12-10T04:46:57.669Z,8.60
2018-12-10T04:49:31.799Z,8.80
2018-12-10T04:52:05.861Z,8.70
2018-12-10T04:54:43.272Z,8.70
2018-12-10T04:57:17.329Z,8.70
2018-12-10T04:59:52.883Z,8.80
2018-12-10T05:02:27.167Z,8.70
2018-12-10T05:08:12.042Z,8.70
2018-12-10T05:10:46.135Z,8.70
2018-12-10T05:13:20.169Z,8.60
2018-12-10T05:15:54.233Z,8.60
2018-12-10T05:18:28.302Z,8.60
2018-12-10T05:21:02.437Z,8.60
2018-12-10T05:23:36.474Z,8.50
2018-12-10T05:26:10.514Z,8.50
2018-12-10T05:28:44.541Z,8.50
2018-12-10T05:31:18.610Z,8.50
2018-12-10T05:33:52.672Z,8.50
2018-12-10T05:36:26.750Z,8.50
2018-12-10T05:39:00.921Z,8.50
2018-12-10T05:41:34.978Z,8.60
2018-12-10T05:44:09.013Z,8.60
2018-12-10T05:46:43.065Z,8.50
2018-12-10T05:49:17.105Z,8.60
2018-12-10T05:51:51.165Z,8.50
2018-12-10T05:54:25.261Z,8.50
2018-12-10T05:56:59.326Z,8.60
2018-12-10T05:59:33.374Z,8.60
2018-12-10T06:02:07.431Z,8.60
2018-12-10T06:04:41.578Z,8.60
2018-12-10T06:07:15.869Z,8.60
2018-12-10T06:09:51.177Z,8.60
2018-12-10T06:12:25.454Z,8.50
2018-12-10T06:14:59.506Z,8.50
2018-12-10T06:17:33.565Z,8.50
2018-12-10T06:20:07.717Z,8.50
2018-12-10T06:22:41.827Z,8.50
2018-12-10T06:25:15.872Z,8.50
2018-12-10T06:27:59.646Z,8.60
2018-12-10T06:30:33.686Z,8.60
2018-12-10T06:33:07.805Z,8.60
2018-12-10T06:35:41.866Z,8.60
2018-12-10T06:38:16.034Z,8.60
2018-12-10T06:40:50.061Z,8.50
2018-12-10T06:43:25.182Z,8.60
2018-12-10T06:45:59.231Z,8.60
2018-12-10T06:48:33.291Z,8.50
2018-12-10T06:51:13.000Z,8.60
2018-12-10T06:53:47.184Z,8.50
2018-12-10T06:56:21.245Z,8.60
2018-12-10T06:58:55.308Z,8.60
2018-12-10T07:01:29.373Z,8.60
2018-12-10T07:04:03.442Z,8.70
2018-12-10T07:06:37.475Z,8.70
2018-12-10T07:09:11.521Z,8.60
2018-12-10T07:11:45.638Z,8.60
2018-12-10T07:14:19.694Z,8.60
2018-12-10T07:16:54.594Z,8.60
2018-12-10T07:19:28.821Z,8.50
2018-12-10T07:22:02.907Z,8.50
2018-12-10T07:24:36.962Z,8.50
2018-12-10T07:27:12.057Z,8.60
2018-12-10T07:29:46.125Z,8.60
2018-12-10T07:32:20.242Z,8.50
2018-12-10T07:34:54.302Z,8.50
2018-12-10T07:37:28.338Z,8.30
2018-12-10T07:40:02.399Z,8.30
2018-12-10T07:42:36.484Z,8.20
2018-12-10T07:45:10.603Z,8.10
2018-12-10T07:47:44.746Z,8.00
2018-12-10T07:50:18.955Z,8.10
2018-12-10T07:52:53.119Z,8.10
2018-12-10T07:55:27.166Z,8.00
2018-12-10T07:58:01.237Z,7.90
2018-12-10T08:00:35.290Z,7.90
2018-12-10T08:03:09.342Z,7.90
2018-12-10T08:05:43.403Z,7.80
2018-12-10T08:08:17.466Z,7.70
2018-12-10T08:10:51.566Z,7.70
2018-12-10T08:13:25.627Z,7.80
2018-12-10T08:16:01.745Z,7.90
2018-12-10T08:18:36.886Z,7.90
2018-12-10T08:21:10.927Z,7.90
2018-12-10T08:23:44.980Z,8.00
2018-12-10T08:26:20.027Z,8.10
2018-12-10T08:31:23.852Z,8.00
2018-12-10T08:31:30.166Z,7.90
2018-12-10T08:34:04.482Z,8.00
2018-12-10T08:36:38.515Z,8.00
2018-12-10T08:39:12.590Z,8.00
2018-12-10T08:41:46.651Z,8.00
2018-12-10T08:44:20.708Z,8.10
2018-12-10T08:46:54.875Z,8.20
2018-12-10T08:49:29.095Z,8.20
2018-12-10T08:52:03.227Z,8.20
2018-12-10T08:54:43.161Z,8.30
2018-12-10T08:57:17.352Z,8.30
2018-12-10T08:59:51.718Z,8.30
2018-12-10T09:02:28.887Z,8.30
2018-12-10T09:05:03.078Z,8.30
2018-12-10T09:07:37.110Z,8.40
2018-12-10T09:10:11.203Z,8.40
2018-12-10T09:12:47.084Z,8.40
2018-12-10T09:15:21.334Z,8.40
2018-12-10T09:17:55.370Z,8.40
2018-12-10T09:20:29.456Z,8.40
2018-12-10T09:23:03.638Z,8.40
2018-12-10T09:25:37.714Z,8.40
2018-12-10T09:28:19.260Z,8.40
2018-12-10T09:30:47.829Z,8.40
2018-12-10T09:33:21.902Z,8.40
2018-12-10T09:35:55.944Z,8.20
2018-12-10T09:38:30.009Z,8.30
2018-12-10T09:41:04.216Z,8.40
2018-12-10T09:43:38.260Z,8.40
2018-12-10T09:46:12.342Z,8.40
2018-12-10T09:48:46.354Z,8.40
2018-12-10T09:51:20.398Z,8.30
2018-12-10T09:53:54.445Z,8.30
2018-12-10T09:56:29.574Z,8.30
2018-12-10T09:59:05.722Z,8.30
2018-12-10T10:01:39.758Z,8.30
2018-12-10T10:04:13.804Z,8.40
2018-12-10T10:06:48.872Z,8.40
2018-12-10T10:09:22.959Z,8.40
2018-12-10T10:11:57.004Z,8.50
2018-12-10T10:14:31.022Z,8.50
2018-12-10T10:17:06.139Z,8.50
2018-12-10T10:19:40.181Z,8.60
2018-12-10T10:22:14.186Z,8.60
2018-12-10T10:24:48.215Z,8.60
2018-12-10T10:27:22.246Z,8.70
2018-12-10T10:29:56.286Z,8.70
2018-12-10T10:32:30.323Z,8.70
2018-12-10T10:35:04.594Z,8.80
2018-12-10T10:37:38.615Z,8.80
2018-12-10T10:40:12.882Z,8.90
2018-12-10T10:42:47.193Z,8.90
2018-12-10T10:45:21.386Z,8.80
2018-12-10T10:47:55.410Z,8.80
2018-12-10T10:50:29.454Z,8.80
2018-12-10T10:53:03.501Z,8.80
2018-12-10T10:55:37.561Z,8.70
2018-12-10T10:58:11.574Z,8.70
2018-12-10T11:00:51.217Z,8.80
2018-12-10T11:03:30.474Z,8.80
2018-12-10T11:06:05.029Z,8.80
2018-12-10T11:08:39.168Z,8.90
2018-12-10T11:11:13.214Z,8.90
2018-12-10T11:13:47.221Z,8.80
2018-12-10T11:16:21.309Z,8.70
2018-12-10T11:18:55.313Z,8.70
2018-12-10T11:21:29.362Z,8.80
2018-12-10T11:24:03.512Z,8.90
2018-12-10T11:26:37.554Z,8.60
2018-12-10T11:29:11.578Z,8.70
2018-12-10T11:31:50.722Z,8.70
2018-12-10T11:34:24.742Z,8.60
2018-12-10T11:36:58.769Z,8.70
2018-12-10T11:39:32.867Z,8.90
2018-12-10T11:42:07.026Z,8.70
2018-12-10T11:44:41.069Z,8.80
2018-12-10T11:47:15.108Z,8.70
2018-12-10T11:49:49.157Z,8.80
2018-12-10T11:52:23.193Z,8.90
2018-12-10T11:54:57.350Z,8.90
2018-12-10T11:57:31.365Z,9.00
2018-12-10T12:00:09.155Z,9.20
2018-12-10T12:02:46.251Z,9.20
2018-12-10T12:05:20.295Z,9.20
2018-12-10T12:07:54.317Z,9.30
2018-12-10T12:10:28.357Z,9.30
2018-12-10T12:13:02.548Z,9.30
2018-12-10T12:15:36.698Z,9.20
2018-12-10T12:18:10.739Z,9.10
2018-12-10T12:20:45.882Z,9.20
2018-12-10T12:23:19.895Z,9.20
2018-12-10T12:25:54.168Z,9.30
2018-12-10T12:28:28.192Z,9.30
2018-12-10T12:31:06.034Z,9.30
2018-12-10T12:33:41.463Z,9.40
2018-12-10T12:36:15.930Z,9.40
2018-12-10T12:38:50.045Z,9.40
2018-12-10T12:41:25.207Z,9.40
2018-12-10T12:43:59.237Z,9.30
2018-12-10T12:46:33.275Z,9.30
2018-12-10T12:49:07.349Z,9.20
2018-12-10T12:51:41.387Z,9.10
2018-12-10T12:54:15.469Z,9.10
2018-12-10T12:56:49.507Z,8.90
2018-12-10T12:59:23.677Z,9.00
2018-12-10T13:01:57.741Z,9.00
2018-12-10T13:04:33.750Z,9.00
2018-12-10T13:07:07.773Z,9.00
2018-12-10T13:09:42.471Z,9.10
2018-12-10T13:12:16.502Z,9.00
2018-12-10T13:14:50.521Z,9.00
2018-12-10T13:17:24.566Z,9.10
2018-12-10T13:19:58.573Z,9.10
2018-12-10T13:22:32.649Z,9.20
2018-12-10T13:25:06.662Z,9.90
2018-12-10T13:27:40.707Z,9.60
2018-12-10T13:30:14.738Z,9.20
2018-12-10T13:32:48.807Z,9.20
2018-12-10T13:35:22.842Z,9.10
2018-12-10T13:37:56.901Z,8.90
2018-12-10T13:40:30.998Z,9.00
2018-12-10T13:43:05.045Z,9.00
2018-12-10T13:45:39.122Z,9.00
2018-12-10T13:48:13.185Z,9.00
2018-12-10T13:50:47.231Z,8.90
2018-12-10T13:53:21.298Z,8.90
2018-12-10T13:55:55.914Z,9.00
2018-12-10T13:58:29.962Z,9.00
2018-12-10T14:01:04.129Z,9.00
2018-12-10T14:03:38.176Z,9.00
2018-12-10T14:06:12.246Z,9.00
2018-12-10T14:08:46.425Z,8.90
2018-12-10T14:11:20.507Z,8.80
2018-12-10T14:13:54.562Z,8.90
2018-12-10T14:16:28.723Z,8.80
2018-12-10T14:19:02.813Z,8.70
2018-12-10T14:21:36.863Z,8.70
2018-12-10T14:24:11.035Z,8.70
2018-12-10T14:26:45.179Z,8.60
2018-12-10T14:29:19.300Z,8.50
2018-12-10T14:31:53.477Z,8.70
2018-12-10T14:34:28.035Z,8.60
2018-12-10T14:37:02.110Z,8.60
2018-12-10T14:39:36.239Z,8.60
2018-12-10T14:42:20.727Z,8.70
2018-12-10T14:44:54.741Z,8.50
2018-12-10T14:47:29.862Z,8.60
2018-12-10T14:50:04.130Z,8.50
2018-12-10T14:52:38.278Z,8.60
2018-12-10T14:55:12.743Z,8.60
2018-12-10T14:57:46.782Z,8.60
2018-12-10T15:00:20.895Z,8.60
2018-12-10T15:02:55.023Z,8.60
2018-12-10T15:05:29.040Z,8.50
2018-12-10T15:08:04.170Z,8.60
2018-12-10T15:10:38.342Z,8.60
2018-12-10T15:13:15.561Z,8.50
2018-12-10T15:15:49.730Z,8.20
2018-12-10T15:18:23.818Z,7.60
2018-12-10T15:20:57.834Z,7.40
2018-12-10T15:23:31.922Z,7.40
2018-12-10T15:26:05.946Z,7.60
2018-12-10T15:28:40.095Z,7.70
2018-12-10T15:31:14.134Z,7.80
2018-12-10T15:33:48.299Z,7.90
2018-12-10T15:36:22.345Z,7.90
2018-12-10T15:38:56.405Z,7.80
2018-12-10T15:41:30.443Z,7.90
2018-12-10T15:44:04.493Z,8.00
2018-12-10T15:46:39.550Z,8.10
2018-12-10T15:49:14.730Z,8.00
2018-12-10T15:51:48.866Z,8.00
2018-12-10T15:54:22.922Z,8.00
2018-12-10T15:56:56.959Z,7.90
2018-12-10T15:59:31.006Z,7.90
2018-12-10T16:02:05.278Z,7.80
2018-12-10T16:04:42.661Z,7.80
2018-12-10T16:07:16.763Z,7.90
2018-12-10T16:09:50.892Z,7.80
2018-12-10T16:12:28.158Z,8.00
2018-12-10T16:15:06.858Z,8.00
2018-12-10T16:17:40.919Z,7.90
2018-12-10T16:20:14.967Z,7.70
2018-12-10T16:22:50.046Z,7.80
2018-12-10T16:25:24.227Z,7.80
2018-12-10T16:27:58.528Z,7.90
2018-12-10T16:30:33.130Z,7.80
2018-12-10T16:33:07.319Z,7.80
2018-12-10T16:35:41.925Z,7.90
2018-12-10T16:38:15.959Z,7.90
2018-12-10T16:40:51.071Z,7.90
2018-12-10T16:43:25.534Z,7.90
2018-12-10T16:45:59.713Z,7.80
2018-12-10T16:48:33.885Z,7.80
2018-12-10T16:51:08.207Z,7.90
2018-12-10T16:53:42.411Z,7.80
2018-12-10T16:56:16.492Z,7.90
2018-12-10T16:58:50.535Z,7.90
2018-12-10T17:01:24.590Z,7.90
2018-12-10T17:03:58.810Z,7.90
2018-12-10T17:06:32.859Z,7.90
2018-12-10T17:09:10.090Z,7.90
2018-12-10T17:11:44.694Z,7.90
2018-12-10T17:14:19.531Z,7.80
2018-12-10T17:16:53.586Z,7.80
2018-12-10T17:19:27.618Z,7.80
2018-12-10T17:22:02.843Z,7.80
2018-12-10T17:24:36.992Z,7.70
2018-12-10T17:27:11.043Z,7.70
2018-12-10T17:29:45.075Z,7.70
2018-12-10T17:32:20.571Z,7.70
2018-12-10T17:34:54.650Z,7.70
2018-12-10T17:37:28.665Z,7.70
2018-12-10T17:40:02.881Z,7.70
2018-12-10T17:42:37.042Z,7.80
2018-12-10T17:45:11.341Z,7.90
2018-12-10T17:47:45.390Z,7.80
2018-12-10T17:50:19.649Z,7.80
2018-12-10T17:52:55.680Z,7.90
2018-12-10T17:55:29.708Z,7.90
2018-12-10T17:58:05.752Z,8.00
2018-12-10T18:00:39.909Z,8.00
2018-12-10T18:03:13.950Z,8.00
2018-12-10T18:05:48.093Z,8.00
2018-12-10T18:08:22.129Z,8.00
2018-12-10T18:10:56.198Z,8.00
2018-12-10T18:13:30.309Z,7.90
2018-12-10T18:16:04.353Z,7.90
2018-12-10T18:18:38.582Z,8.00
2018-12-10T18:21:12.743Z,8.00
2018-12-10T18:23:46.881Z,8.00
2018-12-10T18:26:21.026Z,8.00
2018-12-10T18:28:55.047Z,8.00
2018-12-10T18:31:29.082Z,8.00
2018-12-10T18:34:03.138Z,7.90
2018-12-10T18:36:37.202Z,7.90
2018-12-10T18:39:11.518Z,7.90
2018-12-10T18:41:45.688Z,7.90
2018-12-10T18:44:19.730Z,7.90
2018-12-10T18:46:53.801Z,7.90
2018-12-10T18:49:27.837Z,7.90
2018-12-10T18:52:03.147Z,7.90
2018-12-10T18:54:37.269Z,7.90
2018-12-10T18:57:11.297Z,7.90
2018-12-10T18:59:45.854Z,8.00
2018-12-10T19:02:23.427Z,8.00
2018-12-10T19:04:57.483Z,7.90
2018-12-10T19:07:31.557Z,7.90
2018-12-10T19:10:08.058Z,7.80
2018-12-10T19:12:42.231Z,7.80
2018-12-10T19:15:16.343Z,7.80
2018-12-10T19:17:50.433Z,7.70
2018-12-10T19:20:24.543Z,7.80
2018-12-10T19:22:58.574Z,7.70
2018-12-10T19:25:32.730Z,7.60
2018-12-10T19:28:06.848Z,8.50
2018-12-10T19:30:40.922Z,8.20
2018-12-10T19:33:15.038Z,8.70
2018-12-10T19:35:49.098Z,8.50
2018-12-10T19:38:23.115Z,8.20
2018-12-10T19:40:57.189Z,8.10
2018-12-10T19:43:31.206Z,8.00
2018-12-10T19:46:05.230Z,8.00
2018-12-10T19:48:39.346Z,7.90
2018-12-10T19:51:13.401Z,7.90
2018-12-10T19:53:47.420Z,7.80
2018-12-10T19:56:21.473Z,7.80
2018-12-10T19:58:55.663Z,7.60
2018-12-10T20:01:29.698Z,7.70
2018-12-10T20:04:03.862Z,7.70
2018-12-10T20:06:43.336Z,7.60
2018-12-10T20:09:17.404Z,7.70
2018-12-10T20:11:51.425Z,7.70
2018-12-10T20:14:25.439Z,7.70
2018-12-10T20:17:02.631Z,7.70
2018-12-10T20:19:36.843Z,7.80
2018-12-10T20:22:12.938Z,7.80
2018-12-10T20:24:46.982Z,7.80
2018-12-10T20:27:21.039Z,7.80
2018-12-10T20:29:55.083Z,7.70
2018-12-10T20:32:29.204Z,7.60
2018-12-10T20:35:03.441Z,7.70
2018-12-10T20:37:37.602Z,7.60
2018-12-10T20:40:11.783Z,7.80
2018-12-10T20:42:45.855Z,7.80
2018-12-10T20:45:20.838Z,7.80
2018-12-10T20:47:54.903Z,7.80
2018-12-10T20:50:28.934Z,7.90
2018-12-10T20:53:03.280Z,7.90
2018-12-10T20:55:37.420Z,7.90
2018-12-10T20:58:11.470Z,7.80
2018-12-10T21:00:45.544Z,7.90
2018-12-10T21:03:19.746Z,8.00
2018-12-10T21:06:01.083Z,8.00
2018-12-10T21:08:35.106Z,7.80
2018-12-10T21:11:10.285Z,7.80
2018-12-10T21:13:44.318Z,7.90
2018-12-10T21:16:19.430Z,7.90
2018-12-10T21:18:53.570Z,8.00
2018-12-10T21:21:27.666Z,8.10
2018-12-10T21:24:01.704Z,8.10
2018-12-10T21:26:35.823Z,8.20
2018-12-10T21:29:09.874Z,8.10
2018-12-10T21:31:43.933Z,8.00
2018-12-10T21:34:18.050Z,8.10
2018-12-10T21:36:52.110Z,8.10
2018-12-10T21:39:26.236Z,8.00
2018-12-10T21:42:10.383Z,8.00
2018-12-10T21:44:44.418Z,8.00
2018-12-10T21:47:18.472Z,8.00
2018-12-10T21:49:52.515Z,8.00
2018-12-10T21:52:26.668Z,8.00
2018-12-10T21:55:01.009Z,8.00
2018-12-10T21:57:35.282Z,7.90
2018-12-10T22:00:13.892Z,7.90
2018-12-10T22:02:48.186Z,7.90
2018-12-10T22:05:22.706Z,7.80
2018-12-10T22:07:56.780Z,7.90
2018-12-10T22:10:30.818Z,8.00
2018-12-10T22:13:06.917Z,8.10
2018-12-10T22:15:40.966Z,8.10
2018-12-10T22:18:15.096Z,8.10
2018-12-10T22:20:49.132Z,8.10
2018-12-10T22:23:23.372Z,8.10
2018-12-10T22:25:57.476Z,8.10
2018-12-10T22:28:39.350Z,8.10
2018-12-10T22:31:13.489Z,8.10
2018-12-10T22:33:47.578Z,8.20
2018-12-10T22:36:23.678Z,8.10
2018-12-10T22:38:57.737Z,8.10
2018-12-10T22:41:31.778Z,8.00
2018-12-10T22:44:15.295Z,8.00
2018-12-10T22:46:49.350Z,8.10
2018-12-10T22:49:23.397Z,8.10
2018-12-10T22:51:57.456Z,8.10
2018-12-10T22:54:31.495Z,8.10
2018-12-10T22:57:05.568Z,8.00
2018-12-10T22:59:39.610Z,8.00
2018-12-10T23:02:13.819Z,8.00
2018-12-10T23:04:51.594Z,8.00
2018-12-10T23:07:26.731Z,8.00
2018-12-10T23:10:00.779Z,7.90
2018-12-10T23:12:34.842Z,7.80
2018-12-10T23:15:08.998Z,7.80
2018-12-10T23:17:43.179Z,7.80
2018-12-10T23:20:17.866Z,7.90
2018-12-10T23:22:52.003Z,7.90
2018-12-10T23:25:26.055Z,7.90
2018-12-10T23:28:00.179Z,7.90
2018-12-10T23:30:34.299Z,7.90
2018-12-10T23:33:08.391Z,7.90
2018-12-10T23:35:42.438Z,7.80
2018-12-10T23:38:23.474Z,7.90
2018-12-10T23:40:57.536Z,7.90
2018-12-10T23:43:31.606Z,7.80
2018-12-10T23:46:05.667Z,7.80
2018-12-10T23:48:39.717Z,7.90
2018-12-10T23:51:13.763Z,7.90
2018-12-10T23:53:47.830Z,7.90
2018-12-10T23:56:21.954Z,7.90
2018-12-10T23:58:56.029Z,7.90
